sensor_id;sensor_type;location;lat;lon;timestamp;P1;durP1;ratioP1;P2;durP2;ratioP2
19221;SDS011;9745;50.828;4.378;2024-01-06T00:00:37;6.07;;;3.50;;
19221;SDS011;9745;50.828;4.378;2024-01-06T00:03:03;6.93;;;3.67;;
19221;SDS011;9745;50.828;4.378;2024-01-06T00:05:29;8.13;;;3.03;;
19221;SDS011;9745;50.828;4.378;2024-01-06T00:07:55;7.47;;;3.37;;
19221;SDS011;9745;50.828;4.378;2024-01-06T00:10:21;10.83;;;3.20;;
19221;SDS011;9745;50.828;4.378;2024-01-06T00:12:47;8.57;;;3.23;;
19221;SDS011;9745;50.828;4.378;2024-01-06T00:15:13;8.90;;;2.90;;
19221;SDS011;9745;50.828;4.378;2024-01-06T00:17:39;10.97;;;3.67;;
19221;SDS011;9745;50.828;4.378;2024-01-06T00:20:06;7.60;;;2.90;;
19221;SDS011;9745;50.828;4.378;2024-01-06T00:22:32;7.07;;;3.13;;
19221;SDS011;9745;50.828;4.378;2024-01-06T00:24:58;6.27;;;3.27;;
19221;SDS011;9745;50.828;4.378;2024-01-06T00:27:24;7.37;;;3.30;;
19221;SDS011;9745;50.828;4.378;2024-01-06T00:29:50;9.27;;;3.10;;
19221;SDS011;9745;50.828;4.378;2024-01-06T00:32:16;4.20;;;3.07;;
19221;SDS011;9745;50.828;4.378;2024-01-06T00:34:42;6.60;;;3.20;;
19221;SDS011;9745;50.828;4.378;2024-01-06T00:37:08;5.83;;;3.07;;
19221;SDS011;9745;50.828;4.378;2024-01-06T00:39:35;6.87;;;3.40;;
19221;SDS011;9745;50.828;4.378;2024-01-06T00:42:01;8.13;;;3.10;;
19221;SDS011;9745;50.828;4.378;2024-01-06T00:44:27;6.53;;;3.40;;
19221;SDS011;9745;50.828;4.378;2024-01-06T00:46:53;7.50;;;2.90;;
19221;SDS011;9745;50.828;4.378;2024-01-06T00:49:19;3.90;;;2.67;;
19221;SDS011;9745;50.828;4.378;2024-01-06T00:51:45;9.60;;;3.13;;
19221;SDS011;9745;50.828;4.378;2024-01-06T00:54:11;7.70;;;3.03;;
19221;SDS011;9745;50.828;4.378;2024-01-06T00:56:37;6.57;;;2.80;;
19221;SDS011;9745;50.828;4.378;2024-01-06T00:59:03;4.03;;;2.90;;
19221;SDS011;9745;50.828;4.378;2024-01-06T01:01:29;5.60;;;2.80;;
19221;SDS011;9745;50.828;4.378;2024-01-06T01:03:55;9.73;;;3.13;;
19221;SDS011;9745;50.828;4.378;2024-01-06T01:06:21;9.83;;;3.47;;
19221;SDS011;9745;50.828;4.378;2024-01-06T01:08:47;6.17;;;2.67;;
19221;SDS011;9745;50.828;4.378;2024-01-06T01:11:13;5.63;;;3.17;;
19221;SDS011;9745;50.828;4.378;2024-01-06T01:13:39;8.87;;;2.80;;
19221;SDS011;9745;50.828;4.378;2024-01-06T01:16:05;9.43;;;3.10;;
19221;SDS011;9745;50.828;4.378;2024-01-06T01:18:31;5.27;;;2.70;;
19221;SDS011;9745;50.828;4.378;2024-01-06T01:20:57;10.17;;;2.93;;
19221;SDS011;9745;50.828;4.378;2024-01-06T01:23:23;7.17;;;3.03;;
19221;SDS011;9745;50.828;4.378;2024-01-06T01:28:22;8.40;;;3.57;;
19221;SDS011;9745;50.828;4.378;2024-01-06T01:30:48;7.13;;;3.60;;
19221;SDS011;9745;50.828;4.378;2024-01-06T01:33:14;10.43;;;3.67;;
19221;SDS011;9745;50.828;4.378;2024-01-06T01:35:40;10.80;;;3.70;;
19221;SDS011;9745;50.828;4.378;2024-01-06T01:38:06;7.23;;;3.33;;
19221;SDS011;9745;50.828;4.378;2024-01-06T01:40:33;7.77;;;3.40;;
19221;SDS011;9745;50.828;4.378;2024-01-06T01:42:59;8.80;;;3.57;;
19221;SDS011;9745;50.828;4.378;2024-01-06T01:45:25;9.30;;;3.40;;
19221;SDS011;9745;50.828;4.378;2024-01-06T01:47:51;7.73;;;3.53;;
19221;SDS011;9745;50.828;4.378;2024-01-06T01:50:17;8.27;;;3.10;;
19221;SDS011;9745;50.828;4.378;2024-01-06T01:52:45;11.13;;;2.80;;
19221;SDS011;9745;50.828;4.378;2024-01-06T01:55:11;8.57;;;3.00;;
19221;SDS011;9745;50.828;4.378;2024-01-06T01:57:37;5.60;;;2.73;;
19221;SDS011;9745;50.828;4.378;2024-01-06T02:00:03;6.73;;;2.63;;
19221;SDS011;9745;50.828;4.378;2024-01-06T02:02:29;6.17;;;2.43;;
19221;SDS011;9745;50.828;4.378;2024-01-06T02:04:56;4.97;;;2.40;;
19221;SDS011;9745;50.828;4.378;2024-01-06T02:07:22;5.80;;;2.70;;
19221;SDS011;9745;50.828;4.378;2024-01-06T02:09:48;6.33;;;2.30;;
19221;SDS011;9745;50.828;4.378;2024-01-06T02:12:14;6.60;;;2.37;;
19221;SDS011;9745;50.828;4.378;2024-01-06T02:14:40;6.87;;;2.13;;
19221;SDS011;9745;50.828;4.378;2024-01-06T02:17:08;7.27;;;2.20;;
19221;SDS011;9745;50.828;4.378;2024-01-06T02:19:34;5.63;;;1.90;;
19221;SDS011;9745;50.828;4.378;2024-01-06T02:22:00;5.80;;;2.30;;
19221;SDS011;9745;50.828;4.378;2024-01-06T02:24:26;6.17;;;2.20;;
19221;SDS011;9745;50.828;4.378;2024-01-06T02:26:52;4.93;;;2.00;;
19221;SDS011;9745;50.828;4.378;2024-01-06T02:29:18;3.70;;;2.00;;
19221;SDS011;9745;50.828;4.378;2024-01-06T02:31:44;5.10;;;1.70;;
19221;SDS011;9745;50.828;4.378;2024-01-06T02:34:10;5.03;;;2.00;;
19221;SDS011;9745;50.828;4.378;2024-01-06T02:36:36;3.70;;;1.97;;
19221;SDS011;9745;50.828;4.378;2024-01-06T02:39:02;3.73;;;1.87;;
19221;SDS011;9745;50.828;4.378;2024-01-06T02:41:28;5.10;;;3.50;;
19221;SDS011;9745;50.828;4.378;2024-01-06T02:43:54;4.30;;;2.10;;
19221;SDS011;9745;50.828;4.378;2024-01-06T02:46:21;5.03;;;2.20;;
19221;SDS011;9745;50.828;4.378;2024-01-06T02:48:47;4.57;;;2.10;;
19221;SDS011;9745;50.828;4.378;2024-01-06T02:51:13;4.10;;;1.83;;
19221;SDS011;9745;50.828;4.378;2024-01-06T02:53:39;3.60;;;2.00;;
19221;SDS011;9745;50.828;4.378;2024-01-06T02:56:09;6.83;;;2.23;;
19221;SDS011;9745;50.828;4.378;2024-01-06T02:58:45;2.43;;;1.90;;
19221;SDS011;9745;50.828;4.378;2024-01-06T03:01:11;4.53;;;2.10;;
19221;SDS011;9745;50.828;4.378;2024-01-06T03:03:37;4.43;;;1.90;;
19221;SDS011;9745;50.828;4.378;2024-01-06T03:06:04;6.03;;;2.13;;
19221;SDS011;9745;50.828;4.378;2024-01-06T03:08:30;4.77;;;2.23;;
19221;SDS011;9745;50.828;4.378;2024-01-06T03:10:56;5.97;;;2.57;;
19221;SDS011;9745;50.828;4.378;2024-01-06T03:13:22;4.67;;;2.27;;
19221;SDS011;9745;50.828;4.378;2024-01-06T03:15:48;3.77;;;2.40;;
19221;SDS011;9745;50.828;4.378;2024-01-06T03:18:14;4.40;;;2.60;;
19221;SDS011;9745;50.828;4.378;2024-01-06T03:20:40;3.40;;;2.17;;
19221;SDS011;9745;50.828;4.378;2024-01-06T03:23:06;3.47;;;2.17;;
19221;SDS011;9745;50.828;4.378;2024-01-06T03:25:32;4.37;;;2.40;;
19221;SDS011;9745;50.828;4.378;2024-01-06T03:27:58;6.00;;;2.77;;
19221;SDS011;9745;50.828;4.378;2024-01-06T03:30:24;3.33;;;2.50;;
19221;SDS011;9745;50.828;4.378;2024-01-06T03:32:50;6.30;;;2.63;;
19221;SDS011;9745;50.828;4.378;2024-01-06T03:35:15;4.53;;;2.90;;
19221;SDS011;9745;50.828;4.378;2024-01-06T03:37:41;4.13;;;2.90;;
19221;SDS011;9745;50.828;4.378;2024-01-06T03:40:08;3.50;;;2.80;;
19221;SDS011;9745;50.828;4.378;2024-01-06T03:42:34;6.33;;;3.33;;
19221;SDS011;9745;50.828;4.378;2024-01-06T03:45:01;5.43;;;3.23;;
19221;SDS011;9745;50.828;4.378;2024-01-06T03:47:28;6.30;;;4.23;;
19221;SDS011;9745;50.828;4.378;2024-01-06T03:49:54;7.03;;;3.97;;
19221;SDS011;9745;50.828;4.378;2024-01-06T03:52:20;8.43;;;5.17;;
19221;SDS011;9745;50.828;4.378;2024-01-06T03:54:47;10.60;;;4.70;;
19221;SDS011;9745;50.828;4.378;2024-01-06T03:57:12;7.63;;;5.10;;
19221;SDS011;9745;50.828;4.378;2024-01-06T03:59:38;10.37;;;5.37;;
19221;SDS011;9745;50.828;4.378;2024-01-06T04:02:04;9.47;;;5.63;;
19221;SDS011;9745;50.828;4.378;2024-01-06T04:04:30;8.53;;;6.30;;
19221;SDS011;9745;50.828;4.378;2024-01-06T04:06:56;11.70;;;7.30;;
19221;SDS011;9745;50.828;4.378;2024-01-06T04:09:22;10.57;;;7.57;;
19221;SDS011;9745;50.828;4.378;2024-01-06T04:11:48;14.07;;;7.27;;
19221;SDS011;9745;50.828;4.378;2024-01-06T04:14:14;11.70;;;7.27;;
19221;SDS011;9745;50.828;4.378;2024-01-06T04:16:40;14.63;;;7.30;;
19221;SDS011;9745;50.828;4.378;2024-01-06T04:19:06;11.70;;;7.63;;
19221;SDS011;9745;50.828;4.378;2024-01-06T04:21:33;12.97;;;7.20;;
19221;SDS011;9745;50.828;4.378;2024-01-06T04:23:59;15.53;;;7.20;;
19221;SDS011;9745;50.828;4.378;2024-01-06T04:26:25;12.13;;;7.10;;
19221;SDS011;9745;50.828;4.378;2024-01-06T04:28:51;12.07;;;7.20;;
19221;SDS011;9745;50.828;4.378;2024-01-06T04:31:17;14.37;;;7.63;;
19221;SDS011;9745;50.828;4.378;2024-01-06T04:33:43;16.47;;;7.67;;
19221;SDS011;9745;50.828;4.378;2024-01-06T04:36:09;13.63;;;7.57;;
19221;SDS011;9745;50.828;4.378;2024-01-06T04:38:35;12.60;;;7.20;;
19221;SDS011;9745;50.828;4.378;2024-01-06T04:41:01;11.63;;;7.57;;
19221;SDS011;9745;50.828;4.378;2024-01-06T04:43:27;21.40;;;8.33;;
19221;SDS011;9745;50.828;4.378;2024-01-06T04:45:53;16.33;;;7.53;;
19221;SDS011;9745;50.828;4.378;2024-01-06T04:48:19;16.37;;;7.80;;
19221;SDS011;9745;50.828;4.378;2024-01-06T04:50:45;18.57;;;8.20;;
19221;SDS011;9745;50.828;4.378;2024-01-06T04:53:11;12.73;;;7.80;;
19221;SDS011;9745;50.828;4.378;2024-01-06T04:55:37;17.00;;;7.00;;
19221;SDS011;9745;50.828;4.378;2024-01-06T04:58:03;12.77;;;6.93;;
19221;SDS011;9745;50.828;4.378;2024-01-06T05:00:29;11.30;;;7.23;;
19221;SDS011;9745;50.828;4.378;2024-01-06T05:02:55;14.60;;;7.30;;
19221;SDS011;9745;50.828;4.378;2024-01-06T05:05:21;11.80;;;7.17;;
19221;SDS011;9745;50.828;4.378;2024-01-06T05:07:47;13.77;;;7.40;;
19221;SDS011;9745;50.828;4.378;2024-01-06T05:10:13;14.87;;;7.57;;
19221;SDS011;9745;50.828;4.378;2024-01-06T05:12:39;15.97;;;7.10;;
19221;SDS011;9745;50.828;4.378;2024-01-06T05:15:05;15.87;;;7.60;;
19221;SDS011;9745;50.828;4.378;2024-01-06T05:17:32;14.37;;;7.47;;
19221;SDS011;9745;50.828;4.378;2024-01-06T05:19:58;13.70;;;7.13;;
19221;SDS011;9745;50.828;4.378;2024-01-06T05:22:25;15.57;;;7.33;;
19221;SDS011;9745;50.828;4.378;2024-01-06T05:24:51;10.73;;;6.67;;
19221;SDS011;9745;50.828;4.378;2024-01-06T05:27:18;17.73;;;7.47;;
19221;SDS011;9745;50.828;4.378;2024-01-06T05:29:44;13.80;;;7.80;;
19221;SDS011;9745;50.828;4.378;2024-01-06T05:32:10;15.67;;;8.53;;
19221;SDS011;9745;50.828;4.378;2024-01-06T05:34:36;13.20;;;7.30;;
19221;SDS011;9745;50.828;4.378;2024-01-06T05:37:02;16.20;;;7.10;;
19221;SDS011;9745;50.828;4.378;2024-01-06T05:39:28;16.53;;;7.50;;
19221;SDS011;9745;50.828;4.378;2024-01-06T05:41:54;19.07;;;8.30;;
19221;SDS011;9745;50.828;4.378;2024-01-06T05:44:20;15.60;;;6.90;;
19221;SDS011;9745;50.828;4.378;2024-01-06T05:46:46;16.97;;;6.93;;
19221;SDS011;9745;50.828;4.378;2024-01-06T05:49:12;12.83;;;7.73;;
19221;SDS011;9745;50.828;4.378;2024-01-06T05:51:43;13.43;;;6.83;;
19221;SDS011;9745;50.828;4.378;2024-01-06T05:54:10;13.77;;;6.57;;
19221;SDS011;9745;50.828;4.378;2024-01-06T05:56:35;12.63;;;7.10;;
19221;SDS011;9745;50.828;4.378;2024-01-06T05:59:01;13.27;;;7.10;;
19221;SDS011;9745;50.828;4.378;2024-01-06T06:01:28;13.93;;;7.43;;
19221;SDS011;9745;50.828;4.378;2024-01-06T06:03:54;10.77;;;7.50;;
19221;SDS011;9745;50.828;4.378;2024-01-06T06:06:20;22.30;;;8.10;;
19221;SDS011;9745;50.828;4.378;2024-01-06T06:08:46;10.27;;;7.23;;
19221;SDS011;9745;50.828;4.378;2024-01-06T06:11:13;18.97;;;7.10;;
19221;SDS011;9745;50.828;4.378;2024-01-06T06:13:40;12.57;;;7.20;;
19221;SDS011;9745;50.828;4.378;2024-01-06T06:16:06;17.37;;;7.70;;
19221;SDS011;9745;50.828;4.378;2024-01-06T06:18:32;14.73;;;7.67;;
19221;SDS011;9745;50.828;4.378;2024-01-06T06:20:59;14.83;;;6.53;;
19221;SDS011;9745;50.828;4.378;2024-01-06T06:23:25;11.97;;;7.13;;
19221;SDS011;9745;50.828;4.378;2024-01-06T06:25:51;17.30;;;7.60;;
19221;SDS011;9745;50.828;4.378;2024-01-06T06:28:17;20.63;;;7.07;;
19221;SDS011;9745;50.828;4.378;2024-01-06T06:30:43;11.30;;;6.43;;
19221;SDS011;9745;50.828;4.378;2024-01-06T06:33:09;14.43;;;7.00;;
19221;SDS011;9745;50.828;4.378;2024-01-06T06:35:35;14.20;;;6.30;;
19221;SDS011;9745;50.828;4.378;2024-01-06T06:38:01;14.10;;;6.13;;
19221;SDS011;9745;50.828;4.378;2024-01-06T06:40:27;12.77;;;6.10;;
19221;SDS011;9745;50.828;4.378;2024-01-06T06:42:54;8.10;;;5.47;;
19221;SDS011;9745;50.828;4.378;2024-01-06T06:45:19;10.87;;;5.77;;
19221;SDS011;9745;50.828;4.378;2024-01-06T06:47:48;10.67;;;5.47;;
19221;SDS011;9745;50.828;4.378;2024-01-06T06:50:15;12.20;;;5.43;;
19221;SDS011;9745;50.828;4.378;2024-01-06T06:52:41;14.40;;;6.50;;
19221;SDS011;9745;50.828;4.378;2024-01-06T06:55:07;10.00;;;6.37;;
19221;SDS011;9745;50.828;4.378;2024-01-06T06:57:33;10.77;;;6.20;;
19221;SDS011;9745;50.828;4.378;2024-01-06T06:59:59;10.20;;;6.37;;
19221;SDS011;9745;50.828;4.378;2024-01-06T07:02:26;11.83;;;6.57;;
19221;SDS011;9745;50.828;4.378;2024-01-06T07:04:52;13.63;;;7.20;;
19221;SDS011;9745;50.828;4.378;2024-01-06T07:07:18;11.77;;;7.20;;
19221;SDS011;9745;50.828;4.378;2024-01-06T07:09:44;11.00;;;6.63;;
19221;SDS011;9745;50.828;4.378;2024-01-06T07:12:10;15.43;;;6.93;;
19221;SDS011;9745;50.828;4.378;2024-01-06T07:14:36;13.17;;;7.23;;
19221;SDS011;9745;50.828;4.378;2024-01-06T07:17:03;14.50;;;7.87;;
19221;SDS011;9745;50.828;4.378;2024-01-06T07:19:29;13.07;;;7.23;;
19221;SDS011;9745;50.828;4.378;2024-01-06T07:21:55;12.50;;;8.10;;
19221;SDS011;9745;50.828;4.378;2024-01-06T07:24:21;13.10;;;7.70;;
19221;SDS011;9745;50.828;4.378;2024-01-06T07:29:19;15.00;;;8.70;;
19221;SDS011;9745;50.828;4.378;2024-01-06T07:31:45;14.60;;;8.13;;
19221;SDS011;9745;50.828;4.378;2024-01-06T07:34:12;15.43;;;8.77;;
19221;SDS011;9745;50.828;4.378;2024-01-06T07:36:38;15.07;;;9.00;;
19221;SDS011;9745;50.828;4.378;2024-01-06T07:39:04;20.97;;;10.17;;
19221;SDS011;9745;50.828;4.378;2024-01-06T07:41:31;14.40;;;8.20;;
19221;SDS011;9745;50.828;4.378;2024-01-06T07:43:57;16.70;;;9.47;;
19221;SDS011;9745;50.828;4.378;2024-01-06T07:46:23;20.30;;;9.33;;
19221;SDS011;9745;50.828;4.378;2024-01-06T07:48:49;18.10;;;9.73;;
19221;SDS011;9745;50.828;4.378;2024-01-06T07:51:15;20.07;;;10.47;;
19221;SDS011;9745;50.828;4.378;2024-01-06T07:53:42;18.03;;;9.93;;
19221;SDS011;9745;50.828;4.378;2024-01-06T07:56:08;13.40;;;9.50;;
19221;SDS011;9745;50.828;4.378;2024-01-06T07:58:34;20.87;;;10.00;;
19221;SDS011;9745;50.828;4.378;2024-01-06T08:01:00;17.53;;;10.03;;
19221;SDS011;9745;50.828;4.378;2024-01-06T08:03:26;17.83;;;10.33;;
19221;SDS011;9745;50.828;4.378;2024-01-06T08:05:52;17.43;;;10.30;;
19221;SDS011;9745;50.828;4.378;2024-01-06T08:08:19;18.37;;;10.00;;
19221;SDS011;9745;50.828;4.378;2024-01-06T08:10:45;16.87;;;10.00;;
19221;SDS011;9745;50.828;4.378;2024-01-06T08:13:11;17.40;;;9.57;;
19221;SDS011;9745;50.828;4.378;2024-01-06T08:15:38;19.03;;;9.73;;
19221;SDS011;9745;50.828;4.378;2024-01-06T08:18:04;21.70;;;10.30;;
19221;SDS011;9745;50.828;4.378;2024-01-06T08:20:30;14.63;;;8.93;;
19221;SDS011;9745;50.828;4.378;2024-01-06T08:22:56;13.40;;;9.17;;
19221;SDS011;9745;50.828;4.378;2024-01-06T08:25:22;16.43;;;9.10;;
19221;SDS011;9745;50.828;4.378;2024-01-06T08:27:48;13.53;;;8.47;;
19221;SDS011;9745;50.828;4.378;2024-01-06T08:30:14;15.40;;;8.77;;
19221;SDS011;9745;50.828;4.378;2024-01-06T08:32:40;11.83;;;8.67;;
19221;SDS011;9745;50.828;4.378;2024-01-06T08:35:06;16.17;;;8.53;;
19221;SDS011;9745;50.828;4.378;2024-01-06T08:37:32;15.43;;;8.53;;
19221;SDS011;9745;50.828;4.378;2024-01-06T08:39:58;13.07;;;7.70;;
19221;SDS011;9745;50.828;4.378;2024-01-06T08:42:24;11.60;;;7.70;;
19221;SDS011;9745;50.828;4.378;2024-01-06T08:44:51;14.70;;;7.93;;
19221;SDS011;9745;50.828;4.378;2024-01-06T08:47:17;12.17;;;7.70;;
19221;SDS011;9745;50.828;4.378;2024-01-06T08:49:43;12.00;;;6.63;;
19221;SDS011;9745;50.828;4.378;2024-01-06T08:52:09;9.07;;;6.13;;
19221;SDS011;9745;50.828;4.378;2024-01-06T08:54:35;11.47;;;6.33;;
19221;SDS011;9745;50.828;4.378;2024-01-06T08:59:35;11.63;;;6.73;;
19221;SDS011;9745;50.828;4.378;2024-01-06T09:02:01;12.23;;;6.47;;
19221;SDS011;9745;50.828;4.378;2024-01-06T09:04:27;12.70;;;6.70;;
19221;SDS011;9745;50.828;4.378;2024-01-06T09:06:53;8.90;;;5.50;;
19221;SDS011;9745;50.828;4.378;2024-01-06T09:09:19;12.10;;;5.47;;
19221;SDS011;9745;50.828;4.378;2024-01-06T09:11:45;12.37;;;6.37;;
19221;SDS011;9745;50.828;4.378;2024-01-06T09:14:11;11.73;;;6.33;;
19221;SDS011;9745;50.828;4.378;2024-01-06T09:16:37;12.07;;;6.33;;
19221;SDS011;9745;50.828;4.378;2024-01-06T09:19:03;10.57;;;6.03;;
19221;SDS011;9745;50.828;4.378;2024-01-06T09:21:29;11.00;;;5.97;;
19221;SDS011;9745;50.828;4.378;2024-01-06T09:23:55;11.73;;;6.90;;
19221;SDS011;9745;50.828;4.378;2024-01-06T09:26:21;10.03;;;6.67;;
19221;SDS011;9745;50.828;4.378;2024-01-06T09:28:47;16.70;;;7.73;;
19221;SDS011;9745;50.828;4.378;2024-01-06T09:31:13;12.97;;;7.83;;
19221;SDS011;9745;50.828;4.378;2024-01-06T09:33:39;14.83;;;7.47;;
19221;SDS011;9745;50.828;4.378;2024-01-06T09:36:05;12.73;;;6.80;;
19221;SDS011;9745;50.828;4.378;2024-01-06T09:38:31;12.47;;;7.30;;
19221;SDS011;9745;50.828;4.378;2024-01-06T09:40:58;12.23;;;6.87;;
19221;SDS011;9745;50.828;4.378;2024-01-06T09:43:24;13.70;;;7.67;;
19221;SDS011;9745;50.828;4.378;2024-01-06T09:45:54;14.43;;;7.50;;
19221;SDS011;9745;50.828;4.378;2024-01-06T09:48:22;14.30;;;7.20;;
19221;SDS011;9745;50.828;4.378;2024-01-06T09:50:51;14.07;;;7.00;;
19221;SDS011;9745;50.828;4.378;2024-01-06T09:53:19;12.50;;;7.57;;
19221;SDS011;9745;50.828;4.378;2024-01-06T09:55:45;12.73;;;6.47;;
19221;SDS011;9745;50.828;4.378;2024-01-06T09:58:17;12.20;;;7.23;;
19221;SDS011;9745;50.828;4.378;2024-01-06T10:00:43;10.67;;;6.67;;
19221;SDS011;9745;50.828;4.378;2024-01-06T10:03:08;11.30;;;7.47;;
19221;SDS011;9745;50.828;4.378;2024-01-06T10:05:34;13.83;;;6.77;;
19221;SDS011;9745;50.828;4.378;2024-01-06T10:08:01;13.10;;;7.40;;
19221;SDS011;9745;50.828;4.378;2024-01-06T10:10:29;11.90;;;6.93;;
19221;SDS011;9745;50.828;4.378;2024-01-06T10:12:55;10.67;;;6.60;;
19221;SDS011;9745;50.828;4.378;2024-01-06T10:15:21;14.73;;;6.90;;
19221;SDS011;9745;50.828;4.378;2024-01-06T10:17:47;10.40;;;6.70;;
19221;SDS011;9745;50.828;4.378;2024-01-06T10:20:13;13.40;;;7.60;;
19221;SDS011;9745;50.828;4.378;2024-01-06T10:22:41;14.00;;;6.93;;
19221;SDS011;9745;50.828;4.378;2024-01-06T10:25:08;12.57;;;6.53;;
19221;SDS011;9745;50.828;4.378;2024-01-06T10:27:43;12.67;;;7.30;;
19221;SDS011;9745;50.828;4.378;2024-01-06T10:30:09;11.53;;;6.57;;
19221;SDS011;9745;50.828;4.378;2024-01-06T10:32:36;12.57;;;7.17;;
19221;SDS011;9745;50.828;4.378;2024-01-06T10:35:02;12.03;;;6.60;;
19221;SDS011;9745;50.828;4.378;2024-01-06T10:37:29;16.70;;;7.63;;
19221;SDS011;9745;50.828;4.378;2024-01-06T10:40:14;13.47;;;6.97;;
19221;SDS011;9745;50.828;4.378;2024-01-06T10:42:43;14.57;;;7.33;;
19221;SDS011;9745;50.828;4.378;2024-01-06T10:45:10;11.50;;;6.60;;
19221;SDS011;9745;50.828;4.378;2024-01-06T10:47:37;13.43;;;6.87;;
19221;SDS011;9745;50.828;4.378;2024-01-06T10:50:03;12.00;;;7.13;;
19221;SDS011;9745;50.828;4.378;2024-01-06T10:52:30;14.10;;;7.13;;
19221;SDS011;9745;50.828;4.378;2024-01-06T10:54:57;14.60;;;7.30;;
19221;SDS011;9745;50.828;4.378;2024-01-06T10:57:28;11.30;;;6.63;;
19221;SDS011;9745;50.828;4.378;2024-01-06T10:59:59;14.83;;;6.13;;
19221;SDS011;9745;50.828;4.378;2024-01-06T11:02:25;11.43;;;6.57;;
19221;SDS011;9745;50.828;4.378;2024-01-06T11:04:52;13.73;;;6.67;;
19221;SDS011;9745;50.828;4.378;2024-01-06T11:07:19;13.03;;;6.70;;
19221;SDS011;9745;50.828;4.378;2024-01-06T11:09:50;10.77;;;6.60;;
19221;SDS011;9745;50.828;4.378;2024-01-06T11:12:18;8.15;;;5.85;;
19221;SDS011;9745;50.828;4.378;2024-01-06T11:14:44;9.10;;;5.97;;
19221;SDS011;9745;50.828;4.378;2024-01-06T11:17:11;12.27;;;6.60;;
19221;SDS011;9745;50.828;4.378;2024-01-06T11:24:48;15.70;;;7.40;;
19221;SDS011;9745;50.828;4.378;2024-01-06T11:29:48;13.60;;;5.90;;
19221;SDS011;9745;50.828;4.378;2024-01-06T11:32:18;11.50;;;6.63;;
19221;SDS011;9745;50.828;4.378;2024-01-06T11:34:47;10.30;;;6.37;;
19221;SDS011;9745;50.828;4.378;2024-01-06T11:37:14;9.47;;;5.90;;
19221;SDS011;9745;50.828;4.378;2024-01-06T11:39:42;9.17;;;6.03;;
19221;SDS011;9745;50.828;4.378;2024-01-06T11:42:11;10.37;;;7.27;;
19221;SDS011;9745;50.828;4.378;2024-01-06T11:44:43;11.13;;;7.37;;
19221;SDS011;9745;50.828;4.378;2024-01-06T11:47:11;13.07;;;7.07;;
19221;SDS011;9745;50.828;4.378;2024-01-06T11:49:37;11.33;;;6.67;;
19221;SDS011;9745;50.828;4.378;2024-01-06T11:52:03;9.57;;;6.20;;
19221;SDS011;9745;50.828;4.378;2024-01-06T11:54:30;10.03;;;6.23;;
19221;SDS011;9745;50.828;4.378;2024-01-06T11:56:56;8.40;;;5.83;;
19221;SDS011;9745;50.828;4.378;2024-01-06T11:59:22;9.90;;;6.13;;
19221;SDS011;9745;50.828;4.378;2024-01-06T12:01:49;9.37;;;6.30;;
19221;SDS011;9745;50.828;4.378;2024-01-06T12:04:16;10.63;;;6.93;;
19221;SDS011;9745;50.828;4.378;2024-01-06T12:06:43;12.17;;;6.53;;
19221;SDS011;9745;50.828;4.378;2024-01-06T12:09:10;11.93;;;6.87;;
19221;SDS011;9745;50.828;4.378;2024-01-06T12:11:39;10.50;;;6.97;;
19221;SDS011;9745;50.828;4.378;2024-01-06T12:14:05;10.07;;;6.50;;
19221;SDS011;9745;50.828;4.378;2024-01-06T12:16:31;9.10;;;6.30;;
19221;SDS011;9745;50.828;4.378;2024-01-06T12:18:58;9.87;;;6.30;;
19221;SDS011;9745;50.828;4.378;2024-01-06T12:21:26;12.73;;;6.67;;
19221;SDS011;9745;50.828;4.378;2024-01-06T12:23:52;12.07;;;7.90;;
19221;SDS011;9745;50.828;4.378;2024-01-06T12:26:18;9.10;;;6.40;;
19221;SDS011;9745;50.828;4.378;2024-01-06T12:28:48;8.93;;;5.90;;
19221;SDS011;9745;50.828;4.378;2024-01-06T12:31:15;7.87;;;5.50;;
19221;SDS011;9745;50.828;4.378;2024-01-06T12:33:41;7.83;;;5.27;;
19221;SDS011;9745;50.828;4.378;2024-01-06T12:36:07;7.47;;;5.00;;
19221;SDS011;9745;50.828;4.378;2024-01-06T12:38:36;7.37;;;4.73;;
19221;SDS011;9745;50.828;4.378;2024-01-06T12:41:06;8.37;;;4.67;;
19221;SDS011;9745;50.828;4.378;2024-01-06T12:43:31;7.73;;;5.10;;
19221;SDS011;9745;50.828;4.378;2024-01-06T12:45:58;9.47;;;4.77;;
19221;SDS011;9745;50.828;4.378;2024-01-06T12:48:24;8.07;;;4.80;;
19221;SDS011;9745;50.828;4.378;2024-01-06T12:50:50;9.40;;;5.30;;
19221;SDS011;9745;50.828;4.378;2024-01-06T12:53:16;7.90;;;6.10;;
19221;SDS011;9745;50.828;4.378;2024-01-06T12:55:43;9.17;;;5.20;;
19221;SDS011;9745;50.828;4.378;2024-01-06T12:58:09;9.00;;;5.03;;
19221;SDS011;9745;50.828;4.378;2024-01-06T13:00:35;9.67;;;5.50;;
19221;SDS011;9745;50.828;4.378;2024-01-06T13:03:01;9.33;;;5.43;;
19221;SDS011;9745;50.828;4.378;2024-01-06T13:05:27;9.63;;;5.20;;
19221;SDS011;9745;50.828;4.378;2024-01-06T13:07:53;9.00;;;5.60;;
19221;SDS011;9745;50.828;4.378;2024-01-06T13:10:19;10.70;;;5.73;;
19221;SDS011;9745;50.828;4.378;2024-01-06T13:12:45;11.90;;;5.50;;
19221;SDS011;9745;50.828;4.378;2024-01-06T13:15:11;8.13;;;5.50;;
19221;SDS011;9745;50.828;4.378;2024-01-06T13:17:37;9.73;;;5.30;;
19221;SDS011;9745;50.828;4.378;2024-01-06T13:20:06;8.97;;;5.53;;
19221;SDS011;9745;50.828;4.378;2024-01-06T13:22:33;9.37;;;5.77;;
19221;SDS011;9745;50.828;4.378;2024-01-06T13:24:59;7.50;;;4.47;;
19221;SDS011;9745;50.828;4.378;2024-01-06T13:30:02;8.30;;;4.80;;
19221;SDS011;9745;50.828;4.378;2024-01-06T13:32:28;8.13;;;5.27;;
19221;SDS011;9745;50.828;4.378;2024-01-06T13:34:54;7.00;;;4.77;;
19221;SDS011;9745;50.828;4.378;2024-01-06T13:37:26;7.20;;;4.80;;
19221;SDS011;9745;50.828;4.378;2024-01-06T13:39:52;7.47;;;4.80;;
19221;SDS011;9745;50.828;4.378;2024-01-06T13:42:18;7.83;;;4.90;;
19221;SDS011;9745;50.828;4.378;2024-01-06T13:44:46;7.87;;;5.23;;
19221;SDS011;9745;50.828;4.378;2024-01-06T13:47:13;7.90;;;5.33;;
19221;SDS011;9745;50.828;4.378;2024-01-06T13:49:39;7.30;;;4.47;;
19221;SDS011;9745;50.828;4.378;2024-01-06T13:52:05;10.10;;;4.73;;
19221;SDS011;9745;50.828;4.378;2024-01-06T13:54:34;7.23;;;4.93;;
19221;SDS011;9745;50.828;4.378;2024-01-06T13:57:00;8.60;;;5.17;;
19221;SDS011;9745;50.828;4.378;2024-01-06T13:59:27;7.17;;;4.53;;
19221;SDS011;9745;50.828;4.378;2024-01-06T14:01:53;8.40;;;4.87;;
19221;SDS011;9745;50.828;4.378;2024-01-06T14:04:19;8.77;;;4.13;;
19221;SDS011;9745;50.828;4.378;2024-01-06T14:06:45;7.57;;;4.43;;
19221;SDS011;9745;50.828;4.378;2024-01-06T14:09:13;10.77;;;4.70;;
19221;SDS011;9745;50.828;4.378;2024-01-06T14:11:39;6.67;;;4.60;;
19221;SDS011;9745;50.828;4.378;2024-01-06T14:14:05;7.70;;;5.13;;
19221;SDS011;9745;50.828;4.378;2024-01-06T14:16:31;6.87;;;4.47;;
19221;SDS011;9745;50.828;4.378;2024-01-06T14:18:57;7.87;;;5.10;;
19221;SDS011;9745;50.828;4.378;2024-01-06T14:21:23;6.00;;;4.10;;
19221;SDS011;9745;50.828;4.378;2024-01-06T14:23:49;9.60;;;4.93;;
19221;SDS011;9745;50.828;4.378;2024-01-06T14:26:15;8.97;;;5.50;;
19221;SDS011;9745;50.828;4.378;2024-01-06T14:28:42;6.87;;;4.57;;
19221;SDS011;9745;50.828;4.378;2024-01-06T14:31:08;5.93;;;4.23;;
19221;SDS011;9745;50.828;4.378;2024-01-06T14:33:35;5.10;;;4.20;;
19221;SDS011;9745;50.828;4.378;2024-01-06T14:36:01;11.50;;;5.93;;
19221;SDS011;9745;50.828;4.378;2024-01-06T14:38:28;7.27;;;5.00;;
19221;SDS011;9745;50.828;4.378;2024-01-06T14:40:54;10.67;;;4.80;;
19221;SDS011;9745;50.828;4.378;2024-01-06T14:43:20;7.53;;;4.37;;
19221;SDS011;9745;50.828;4.378;2024-01-06T14:45:47;8.57;;;4.73;;
19221;SDS011;9745;50.828;4.378;2024-01-06T14:48:13;6.97;;;4.80;;
19221;SDS011;9745;50.828;4.378;2024-01-06T14:50:39;5.03;;;4.33;;
19221;SDS011;9745;50.828;4.378;2024-01-06T14:53:05;12.13;;;4.33;;
19221;SDS011;9745;50.828;4.378;2024-01-06T14:55:32;5.83;;;3.63;;
19221;SDS011;9745;50.828;4.378;2024-01-06T15:00:31;7.97;;;4.47;;
19221;SDS011;9745;50.828;4.378;2024-01-06T15:02:57;6.77;;;4.17;;
19221;SDS011;9745;50.828;4.378;2024-01-06T15:05:23;6.17;;;3.53;;
19221;SDS011;9745;50.828;4.378;2024-01-06T15:07:53;7.10;;;3.37;;